< < Back
Terminal Aerodrome Forecast


Current Version              Previous Versions:   1  2  3  4  5  6  7  8  9  

Terminal Aerodrome Forecast

729
FTUS44 KMRX 251723
TAFCHA
TAF
KCHA 251723Z 2518/2618 VRB03KT P6SM FEW250
     FM252100 VRB03KT P6SM SCT050
     FM260200 00000KT P6SM SKC
     FM261400 01004KT P6SM SCT150=

Latest METAR

144
SAUS80 KWBC 260900
MTRCHA
METAR KCHA 260853Z 00000KT 6SM BR CLR 12/11 A3001 RMK AO2 SLP159
T01220111 58005


USA.gov is the U.S. government's official web portal to all federal, state and local government web resources and services.